Time;durP1;ratioP1;P1;durP2;ratioP2;P2;SDS_P1;SDS_P2;PMS_P1;PMS_P2;Temp;Humidity;BMP_temperature;BMP_pressure;BME280_temperature;BME280_humidity;BME280_pressure;Samples;Min_cycle;Max_cycle;Signal;HPM_P1;HPM_P2
2023/09/28 00:01:48;;;;;;;15.60;10.70;;;17.30;99.90;;;;;;6306720;22;20439;-87
2023/09/28 00:04:13;;;;;;;13.80;10.10;;;17.30;99.90;;;;;;6306556;22;20015;-87
2023/09/28 00:06:39;;;;;;;15.75;10.68;;;17.30;99.90;;;;;;6306104;22;20015;-87
2023/09/28 00:09:05;;;;;;;15.00;10.45;;;17.20;99.90;;;;;;6308108;22;20015;-88
2023/09/28 00:11:31;;;;;;;14.20;10.10;;;17.30;99.90;;;;;;6308802;22;20015;-87
2023/09/28 00:13:57;;;;;;;15.77;9.77;;;17.20;99.90;;;;;;6307743;22;20435;-87
2023/09/28 00:16:22;;;;;;;17.17;10.55;;;17.20;99.90;;;;;;6306222;22;20011;-87
2023/09/28 00:18:48;;;;;;;15.90;10.07;;;17.30;99.90;;;;;;6306921;22;20007;-87
2023/09/28 00:21:14;;;;;;;15.65;10.68;;;17.30;99.90;;;;;;6307519;22;20011;-88
2023/09/28 00:23:39;;;;;;;14.32;10.00;;;17.30;99.90;;;;;;6306852;22;20015;-87
2023/09/28 00:26:07;;;;;;;16.67;9.77;;;17.30;99.90;;;;;;6306405;22;20022;-87
2023/09/28 00:28:33;;;;;;;15.13;10.27;;;17.30;99.90;;;;;;6307862;22;20080;-87
2023/09/28 00:31:01;;;;;;;15.02;9.73;;;17.30;99.90;;;;;;6306406;22;20050;-87
2023/09/28 00:33:27;;;;;;;16.70;10.70;;;17.30;99.90;;;;;;6332514;22;20451;-87
2023/09/28 00:35:52;;;;;;;14.93;10.32;;;17.30;99.90;;;;;;6311231;22;20014;-87
2023/09/28 00:38:18;;;;;;;13.93;9.82;;;17.30;99.90;;;;;;6311337;22;20037;-87
2023/09/28 00:40:44;;;;;;;15.32;10.25;;;17.30;99.90;;;;;;6311652;22;20006;-87
2023/09/28 00:43:10;;;;;;;14.75;9.98;;;17.30;99.90;;;;;;6310283;22;20064;-87
2023/09/28 00:45:37;;;;;;;14.57;9.63;;;17.30;99.90;;;;;;6311691;22;20443;-87
2023/09/28 00:48:09;;;;;;;13.65;9.27;;;17.30;99.90;;;;;;6311452;22;20021;-87
2023/09/28 00:50:35;;;;;;;14.23;9.60;;;17.30;99.90;;;;;;6338767;22;20018;-87
2023/09/28 00:53:07;;;;;;;14.05;9.70;;;17.30;99.90;;;;;;6311652;22;20033;-87
2023/09/28 00:55:33;;;;;;;13.80;9.88;;;17.30;99.90;;;;;;6310964;22;20064;-87
2023/09/28 00:58:02;;;;;;;13.90;10.10;;;17.40;99.90;;;;;;6311645;22;20018;-87
2023/09/28 01:00:31;;;;;;;14.32;9.93;;;17.40;99.90;;;;;;6311368;22;20049;-87
2023/09/28 01:03:00;;;;;;;14.07;10.02;;;17.40;99.90;;;;;;6338574;22;20019;-87
2023/09/28 01:05:33;;;;;;;15.13;9.60;;;17.40;99.90;;;;;;6311517;22;20046;-87
2023/09/28 01:08:18;;;;;;;16.63;10.10;;;17.40;99.90;;;;;;6311463;22;20011;-87
2023/09/28 01:10:44;;;;;;;13.15;9.27;;;17.40;99.90;;;;;;6310813;22;20064;-87
2023/09/28 01:13:20;;;;;;;14.73;9.77;;;17.30;99.90;;;;;;6338783;22;20013;-87
2023/09/28 01:15:47;;;;;;;14.70;9.80;;;17.40;99.90;;;;;;6311473;22;20019;-87
2023/09/28 01:18:17;;;;;;;12.77;9.20;;;17.30;99.90;;;;;;6309837;22;20011;-87
2023/09/28 01:20:48;;;;;;;14.10;9.70;;;17.30;99.90;;;;;;6339423;22;20011;-87
2023/09/28 01:23:14;;;;;;;12.57;8.85;;;17.30;99.90;;;;;;6310998;22;20015;-87
2023/09/28 01:25:41;;;;;;;14.52;9.52;;;17.30;99.90;;;;;;6310595;22;20098;-87
2023/09/28 01:28:07;;;;;;;14.40;9.10;;;17.20;99.90;;;;;;6310845;22;20098;-87
2023/09/28 01:30:33;;;;;;;12.80;8.63;;;17.30;99.90;;;;;;6311301;22;20034;-87
2023/09/28 01:33:00;;;;;;;13.90;8.55;;;17.30;99.90;;;;;;6310089;22;20014;-87
2023/09/28 01:35:27;;;;;;;15.32;9.05;;;17.20;99.90;;;;;;6311054;22;20019;-87
2023/09/28 01:38:24;;;;;;;12.90;8.52;;;17.30;99.90;;;;;;6310443;22;20019;-87
2023/09/28 01:40:50;;;;;;;14.10;8.60;;;17.30;99.90;;;;;;6311379;22;20096;-87
2023/09/28 01:43:19;;;;;;;12.90;8.55;;;17.20;99.90;;;;;;6338855;22;20014;-87
2023/09/28 01:45:45;;;;;;;16.58;8.75;;;17.20;99.90;;;;;;6338271;22;20015;-87
2023/09/28 01:48:11;;;;;;;13.65;8.40;;;17.20;99.90;;;;;;6310364;22;20014;-87
2023/09/28 01:50:37;;;;;;;13.75;8.52;;;17.20;99.90;;;;;;6310788;22;20027;-87
2023/09/28 01:53:03;;;;;;;13.27;8.43;;;17.20;99.90;;;;;;6310141;22;20011;-86
2023/09/28 01:55:29;;;;;;;11.98;8.05;;;17.10;99.90;;;;;;6339036;22;20375;-86
2023/09/28 01:57:54;;;;;;;14.00;8.23;;;17.10;99.90;;;;;;6339120;22;20072;-86
2023/09/28 02:00:21;;;;;;;13.52;8.55;;;17.20;99.90;;;;;;6337204;22;20330;-86
2023/09/28 02:02:50;;;;;;;13.30;8.35;;;17.10;99.90;;;;;;6310718;22;20462;-86
2023/09/28 02:05:21;;;;;;;12.30;8.05;;;17.10;99.90;;;;;;6309448;22;20458;-86
2023/09/28 02:07:47;;;;;;;13.52;8.20;;;17.10;99.90;;;;;;6309884;22;20014;-85
2023/09/28 02:10:14;;;;;;;11.75;7.88;;;17.00;99.90;;;;;;6338068;22;20414;-86
2023/09/28 02:12:41;;;;;;;11.90;7.70;;;17.00;99.90;;;;;;6310529;22;20447;-86
2023/09/28 02:15:11;;;;;;;12.13;7.80;;;17.00;99.90;;;;;;6309552;22;20011;-86
2023/09/28 02:17:40;;;;;;;12.63;7.67;;;17.00;99.90;;;;;;6336777;22;20015;-85
2023/09/28 02:20:09;;;;;;;12.55;7.60;;;17.00;99.90;;;;;;6309082;22;20082;-86
2023/09/28 02:22:41;;;;;;;12.73;7.47;;;17.00;99.90;;;;;;6310569;22;20338;-86
2023/09/28 02:25:07;;;;;;;12.07;6.63;;;17.00;99.90;;;;;;6309594;22;20339;-86
2023/09/28 02:27:33;;;;;;;12.45;6.72;;;17.10;99.90;;;;;;6309547;22;20021;-85
2023/09/28 02:29:59;;;;;;;11.68;6.53;;;17.10;99.90;;;;;;6310484;22;20316;-86
2023/09/28 02:32:24;;;;;;;11.10;6.30;;;17.10;99.90;;;;;;6309870;22;20029;-86
2023/09/28 02:34:50;;;;;;;12.20;6.63;;;17.10;99.90;;;;;;6309924;22;20019;-86
2023/09/28 02:37:16;;;;;;;10.98;6.28;;;17.00;99.90;;;;;;6309107;22;20018;-86
2023/09/28 02:39:43;;;;;;;10.50;6.05;;;17.00;99.90;;;;;;6310181;22;20019;-85
2023/09/28 02:42:08;;;;;;;12.18;6.88;;;17.00;99.90;;;;;;6309342;22;20014;-86
2023/09/28 02:44:34;;;;;;;12.25;6.25;;;17.00;99.90;;;;;;6310642;22;20124;-86
2023/09/28 02:47:05;;;;;;;11.88;6.32;;;17.00;99.90;;;;;;6309635;22;20037;-86
2023/09/28 02:49:32;;;;;;;11.63;6.63;;;16.90;99.90;;;;;;6337855;22;20102;-86
2023/09/28 02:51:59;;;;;;;13.20;6.72;;;16.90;99.90;;;;;;6310620;22;20015;-86
2023/09/28 02:54:25;;;;;;;11.43;6.25;;;16.80;99.90;;;;;;6310239;22;20019;-86
2023/09/28 02:56:51;;;;;;;10.70;6.05;;;16.80;99.90;;;;;;6337118;22;20436;-86
2023/09/28 02:59:17;;;;;;;11.82;6.53;;;16.80;99.90;;;;;;6310279;22;20434;-86
2023/09/28 03:01:43;;;;;;;10.85;6.40;;;16.70;99.90;;;;;;6338291;22;20097;-85
2023/09/28 03:04:10;;;;;;;12.52;6.65;;;16.80;99.90;;;;;;6308671;22;20038;-86
2023/09/28 03:06:37;;;;;;;12.80;7.20;;;16.80;99.90;;;;;;6338092;22;20015;-86
2023/09/28 03:09:03;;;;;;;14.38;7.10;;;16.80;99.90;;;;;;6309948;22;20019;-86
2023/09/28 03:11:29;;;;;;;13.15;6.95;;;16.80;99.90;;;;;;6309642;22;20293;-86
2023/09/28 03:13:56;;;;;;;13.57;6.85;;;16.80;99.90;;;;;;6310426;22;20010;-86
2023/09/28 03:16:21;;;;;;;11.45;6.70;;;16.80;99.90;;;;;;6308263;22;20018;-86
2023/09/28 03:18:47;;;;;;;11.68;6.85;;;16.80;99.90;;;;;;6310093;22;20007;-86
2023/09/28 03:21:14;;;;;;;13.43;7.10;;;16.80;99.90;;;;;;6309826;22;20017;-86
2023/09/28 03:23:39;;;;;;;13.60;7.20;;;16.80;99.90;;;;;;6309605;22;20011;-86
2023/09/28 03:26:05;;;;;;;13.60;6.97;;;16.90;99.90;;;;;;6309971;22;20095;-86
2023/09/28 03:28:31;;;;;;;13.40;7.25;;;16.80;99.90;;;;;;6310257;22;20380;-86
2023/09/28 03:30:57;;;;;;;11.90;6.75;;;16.90;99.90;;;;;;6309149;22;20064;-86
2023/09/28 03:33:22;;;;;;;12.38;6.45;;;16.90;99.90;;;;;;6310022;22;20023;-86
2023/09/28 03:35:48;;;;;;;12.45;7.07;;;16.90;99.90;;;;;;6309475;22;20107;-87
2023/09/28 03:38:15;;;;;;;12.73;6.75;;;16.90;99.90;;;;;;6338562;22;20015;-86
2023/09/28 03:40:43;;;;;;;13.70;6.60;;;16.90;99.90;;;;;;6312025;22;20018;-86
2023/09/28 03:43:09;;;;;;;12.90;6.80;;;16.90;99.90;;;;;;6340093;22;20078;-86
2023/09/28 03:45:34;;;;;;;14.57;7.47;;;16.90;99.90;;;;;;6311328;22;20034;-87
2023/09/28 03:48:00;;;;;;;11.90;7.25;;;16.90;99.90;;;;;;6311276;22;20097;-86
2023/09/28 03:50:26;;;;;;;13.38;7.40;;;16.90;99.90;;;;;;6310415;22;20018;-87
2023/09/28 03:52:52;;;;;;;13.90;7.32;;;16.90;99.90;;;;;;6311182;22;20346;-86
2023/09/28 03:55:19;;;;;;;12.75;7.13;;;16.80;99.90;;;;;;6310473;22;20011;-86
2023/09/28 03:57:46;;;;;;;12.20;7.28;;;16.80;99.90;;;;;;6312087;22;20007;-86
2023/09/28 04:00:14;;;;;;;12.90;6.95;;;16.70;99.90;;;;;;6309664;22;20454;-86
2023/09/28 04:02:47;;;;;;;11.80;6.35;;;16.60;99.90;;;;;;6337837;22;20050;-86
2023/09/28 04:05:13;;;;;;;;;;;16.50;99.90;;;;;;6311431;22;20384;-86
2023/09/28 04:07:40;;;;;;;13.80;6.78;;;16.50;99.90;;;;;;6309372;22;19914;-86
2023/09/28 04:10:07;;;;;;;11.20;7.20;;;16.40;99.90;;;;;;6311625;22;20019;-86
2023/09/28 04:12:32;;;;;;;12.85;6.70;;;16.50;99.90;;;;;;6311308;22;20050;-86
2023/09/28 04:14:58;;;;;;;11.93;6.70;;;16.40;99.90;;;;;;6311991;22;20381;-86
2023/09/28 04:17:24;;;;;;;13.25;6.90;;;16.40;99.90;;;;;;6312391;22;20023;-86
2023/09/28 04:19:50;;;;;;;13.27;6.70;;;16.40;99.90;;;;;;6310857;22;20015;-86
2023/09/28 04:22:16;;;;;;;12.50;6.70;;;16.40;99.90;;;;;;6339296;22;20080;-87
2023/09/28 04:24:42;;;;;;;12.50;7.05;;;16.40;99.90;;;;;;6311427;22;20075;-86
2023/09/28 04:27:08;;;;;;;12.57;7.28;;;16.40;99.90;;;;;;6310223;22;20447;-86
2023/09/28 04:29:34;;;;;;;13.43;7.32;;;16.40;99.90;;;;;;6311738;22;20455;-86
2023/09/28 04:32:01;;;;;;;14.07;7.72;;;16.40;99.90;;;;;;6339242;22;20095;-86
2023/09/28 04:34:29;;;;;;;12.23;7.65;;;16.40;99.90;;;;;;6310546;22;20019;-86
2023/09/28 04:36:55;;;;;;;13.48;7.80;;;16.40;99.90;;;;;;6311839;22;20401;-86
2023/09/28 04:39:23;;;;;;;15.57;7.70;;;16.50;99.90;;;;;;6311037;22;20043;-86
2023/09/28 04:41:50;;;;;;;13.07;7.47;;;16.50;99.90;;;;;;6338054;22;20015;-86
2023/09/28 04:44:15;;;;;;;13.07;6.80;;;16.50;99.90;;;;;;6339098;22;20010;-86
2023/09/28 04:46:41;;;;;;;12.70;7.22;;;16.50;99.90;;;;;;6311527;22;20434;-86
2023/09/28 04:49:07;;;;;;;17.00;7.47;;;16.50;99.90;;;;;;6309242;22;20613;-86
2023/09/28 04:51:33;;;;;;;13.82;7.60;;;16.50;99.90;;;;;;6311665;22;20042;-86
2023/09/28 04:54:02;;;;;;;14.48;7.75;;;16.50;99.90;;;;;;6310701;22;20014;-86
2023/09/28 04:56:28;;;;;;;15.68;8.45;;;16.50;99.90;;;;;;6310748;22;20026;-86
2023/09/28 04:58:54;;;;;;;13.77;7.13;;;16.40;99.90;;;;;;6311748;22;20387;-86
2023/09/28 05:01:20;;;;;;;13.93;7.80;;;16.40;99.90;;;;;;6311263;22;20053;-86
2023/09/28 05:03:45;;;;;;;16.33;8.30;;;16.40;99.90;;;;;;6310206;22;20495;-86
2023/09/28 05:06:12;;;;;;;16.63;7.82;;;16.40;99.90;;;;;;6310552;22;20015;-86
2023/09/28 05:08:38;;;;;;;14.35;8.10;;;16.40;99.90;;;;;;6311405;22;20026;-86
2023/09/28 05:11:03;;;;;;;14.38;7.82;;;16.30;99.90;;;;;;6309870;22;20144;-86
2023/09/28 05:13:32;;;;;;;12.80;7.63;;;16.40;99.90;;;;;;6311607;22;20446;-86
2023/09/28 05:15:58;;;;;;;13.98;7.43;;;16.40;99.90;;;;;;6338176;22;20095;-86
2023/09/28 05:18:23;;;;;;;12.90;7.55;;;16.40;99.90;;;;;;6309181;22;20399;-87
2023/09/28 05:20:50;;;;;;;17.25;7.30;;;17.00;99.90;;;;;;6310991;22;20084;-87
2023/09/28 05:23:16;;;;;;;12.90;7.15;;;16.40;99.90;;;;;;6309125;22;20438;-86
2023/09/28 05:25:42;;;;;;;13.40;7.20;;;16.40;99.90;;;;;;6311272;22;20022;-86
2023/09/28 05:28:09;;;;;;;16.83;8.10;;;16.30;99.90;;;;;;6310545;22;20346;-86
2023/09/28 05:30:35;;;;;;;16.02;7.43;;;16.30;99.90;;;;;;6310844;22;20014;-86
2023/09/28 05:33:01;;;;;;;16.67;7.63;;;16.30;99.90;;;;;;6305482;22;20019;-86
2023/09/28 05:35:26;;;;;;;15.02;7.15;;;16.40;99.90;;;;;;6306543;22;20350;-86
2023/09/28 05:37:52;;;;;;;13.43;7.50;;;16.20;99.90;;;;;;6305038;22;20015;-86
2023/09/28 05:40:18;;;;;;;15.18;7.35;;;16.20;99.90;;;;;;6305696;22;20054;-86
2023/09/28 05:42:43;;;;;;;14.48;7.72;;;16.40;99.90;;;;;;6306094;22;20049;-86
2023/09/28 05:45:09;;;;;;;15.25;8.27;;;16.10;99.90;;;;;;6304568;22;20015;-86
2023/09/28 05:47:35;;;;;;;14.77;7.70;;;16.10;99.90;;;;;;6305066;22;20011;-86
2023/09/28 05:50:05;;;;;;;15.10;7.38;;;16.40;99.90;;;;;;6305416;22;20094;-86
2023/09/28 05:52:31;;;;;;;16.00;6.85;;;16.20;99.90;;;;;;6304744;22;20011;-86
2023/09/28 05:54:57;;;;;;;13.35;7.53;;;16.30;99.90;;;;;;6306165;22;20076;-86
2023/09/28 05:57:22;;;;;;;14.13;7.03;;;16.20;99.90;;;;;;6304555;22;20023;-84
2023/09/28 05:59:49;;;;;;;13.05;7.00;;;16.20;99.90;;;;;;6306600;22;20078;-84
2023/09/28 06:02:14;;;;;;;12.02;6.68;;;16.30;99.90;;;;;;6305043;22;20423;-84
2023/09/28 06:04:41;;;;;;;13.52;7.03;;;16.30;99.90;;;;;;6305457;22;20095;-85
2023/09/28 06:07:07;;;;;;;16.48;7.20;;;16.30;99.90;;;;;;6304302;22;20015;-85
2023/09/28 06:09:32;;;;;;;13.05;7.40;;;16.30;99.90;;;;;;6304414;22;20391;-85
2023/09/28 06:12:00;;;;;;;17.35;7.38;;;16.30;99.90;;;;;;6303419;22;20026;-84
2023/09/28 06:14:25;;;;;;;12.25;7.28;;;16.40;99.90;;;;;;6303015;22;20026;-82
2023/09/28 06:16:51;;;;;;;13.60;7.20;;;16.40;99.90;;;;;;6303557;22;20027;-83
2023/09/28 06:19:16;;;;;;;14.75;7.03;;;16.40;99.90;;;;;;6302862;22;20042;-82
2023/09/28 06:21:42;;;;;;;14.73;6.82;;;16.60;99.90;;;;;;6303081;22;20094;-82
2023/09/28 06:24:08;;;;;;;13.27;6.72;;;16.50;99.90;;;;;;6303138;22;20019;-82
2023/09/28 06:26:33;;;;;;;14.75;6.97;;;16.50;99.90;;;;;;6303763;22;20520;-82
2023/09/28 06:29:00;;;;;;;16.10;6.60;;;16.50;99.90;;;;;;6305026;22;20015;-84
2023/09/28 06:31:26;;;;;;;15.07;6.70;;;16.50;99.90;;;;;;6304813;22;20011;-83
2023/09/28 06:33:51;;;;;;;12.35;6.32;;;16.60;99.90;;;;;;6304248;22;20023;-82
2023/09/28 15:05:36;;;;;;;15.52;4.10;;;20.00;99.90;;;;;;5084295;28;20098;-90
2023/09/28 15:08:25;;;;;;;16.13;4.25;;;20.00;99.90;;;;;;5085439;28;20048;-89
2023/09/28 15:17:05;;;;;;;20.40;4.25;;;19.70;99.90;;;;;;5328468;22;20048;-86
2023/09/28 15:22:48;;;;;;;21.10;4.10;;;19.70;99.90;;;;;;5219144;22;20047;-89
2023/09/28 15:26:06;;;;;;;20.63;4.15;;;19.60;99.90;;;;;;5129676;28;20104;-88
2023/09/28 15:28:47;;;;;;;20.67;4.50;;;19.60;99.90;;;;;;5114371;28;20047;-90
2023/09/28 15:31:58;;;;;;;18.92;4.43;;;19.60;99.90;;;;;;5130770;28;20061;-89
2023/09/28 15:34:36;;;;;;;20.77;4.18;;;19.50;99.90;;;;;;5105086;28;20075;-88
2023/09/28 15:37:28;;;;;;;16.63;4.05;;;19.60;99.90;;;;;;5093209;28;20062;-90
2023/09/28 15:39:54;;;;;;;18.67;3.88;;;19.60;99.90;;;;;;5048381;28;20161;-91
2023/09/28 15:42:35;;;;;;;16.30;4.35;;;19.70;99.90;;;;;;5047658;28;20519;-91
2023/09/28 15:48:26;;;;;;;21.67;4.65;;;19.70;99.90;;;;;;3243090;25;20059;-92
2023/09/28 15:51:10;;;;;;;14.38;3.70;;;19.90;99.90;;;;;;5057096;28;20139;-92
2023/09/28 15:54:06;;;;;;;19.95;4.47;;;19.60;99.90;;;;;;5005535;28;20053;-82
2023/09/28 15:56:32;;;;;;;20.48;4.60;;;19.60;99.90;;;;;;5102138;28;20140;-82
2023/09/28 15:59:07;;;;;;;18.65;4.65;;;19.50;99.90;;;;;;5111869;28;20052;-88
2023/09/28 16:01:42;;;;;;;19.77;4.60;;;19.50;99.90;;;;;;5108557;28;20036;-87
2023/09/28 16:04:17;;;;;;;19.13;4.00;;;19.50;99.90;;;;;;5108729;28;20055;-87
2023/09/28 16:06:45;;;;;;;16.48;3.97;;;19.40;99.90;;;;;;5108527;28;20035;-89
2023/09/28 16:09:13;;;;;;;19.55;4.43;;;19.40;99.90;;;;;;5107113;28;20085;-88
2023/09/28 16:11:48;;;;;;;17.35;4.07;;;19.30;99.90;;;;;;5100274;28;20044;-93
2023/09/28 16:14:32;;;;;;;19.88;4.60;;;19.20;99.90;;;;;;5090499;28;20044;-89
2023/09/28 16:17:08;;;;;;;16.02;4.47;;;19.20;99.90;;;;;;5094418;28;20067;-88
2023/09/28 16:19:37;;;;;;;16.35;3.95;;;19.10;99.90;;;;;;5082217;28;20040;-89
2023/09/28 16:22:07;;;;;;;20.98;4.38;;;19.00;99.90;;;;;;5080373;28;20123;-88
2023/09/28 16:24:38;;;;;;;18.45;4.53;;;19.00;99.90;;;;;;5090744;28;20126;-88
2023/09/28 16:27:45;;;;;;;16.90;4.30;;;18.90;99.90;;;;;;5093859;28;20055;-88
2023/09/28 16:30:36;;;;;;;15.25;3.47;;;18.90;99.90;;;;;;5100192;22;20055;-88
2023/09/28 16:33:08;;;;;;;16.08;4.05;;;18.80;99.90;;;;;;5036226;28;20064;-88
2023/09/28 16:35:34;;;;;;;16.30;3.97;;;18.80;99.90;;;;;;5055100;28;20052;-89
2023/09/28 16:38:05;;;;;;;14.93;4.55;;;18.80;99.90;;;;;;5056312;28;20040;-88
2023/09/28 16:40:49;;;;;;;16.00;3.92;;;18.60;99.90;;;;;;5056516;28;20549;-88
2023/09/28 16:43:47;;;;;;;14.80;4.97;;;18.60;99.90;;;;;;5179118;22;20051;-88
2023/09/28 16:46:12;;;;;;;16.88;3.80;;;18.30;99.90;;;;;;5087939;28;20051;-88
2023/09/28 16:48:57;;;;;;;15.13;3.78;;;18.40;99.90;;;;;;5096912;28;20043;-88
2023/09/28 16:51:45;;;;;;;17.00;3.80;;;18.30;99.90;;;;;;5096370;28;20050;-88
2023/09/28 17:45:24;;;;;;;16.90;5.82;;;16.80;99.90;;;;;;5041751;23;20052;-87
2023/09/28 17:50:39;;;;;;;;;;;;;;;;;;;;;
2023/09/28 18:23:28;;;;;;;19.42;5.35;;;16.20;99.90;;;;;;4944168;29;20083;-96
2023/09/28 18:55:56;;;;;;;20.83;7.07;;;15.80;99.90;;;;;;4948222;29;20094;-95
2023/09/28 18:59:06;;;;;;;20.92;6.95;;;15.90;99.90;;;;;;4920170;29;20055;-94
2023/09/28 19:05:38;;;;;;;18.73;6.32;;;15.30;99.90;;;;;;4929592;29;20042;-96
2023/09/28 19:08:34;;;;;;;16.25;5.75;;;15.80;99.90;;;;;;4980268;23;20103;-95
2023/09/28 19:11:25;;;;;;;21.70;6.45;;;15.50;99.90;;;;;;4940505;29;20050;-96
2023/09/28 19:14:06;;;;;;;18.88;6.20;;;16.20;99.90;;;;;;4856218;29;20037;-96
2023/09/28 19:17:25;;;;;;;22.00;6.28;;;15.50;99.90;;;;;;4840603;29;20564;-96
2023/09/28 19:29:35;;;;;;;18.42;6.22;;;15.40;99.90;;;;;;4954876;29;20055;-94
2023/09/28 19:32:45;;;;;;;19.63;6.22;;;15.30;99.90;;;;;;4937848;29;20091;-96
2023/09/28 19:39:29;;;;;;;18.77;6.10;;;15.20;99.90;;;;;;4937897;28;20456;-94
2023/09/28 19:43:06;;;;;;;21.30;6.32;;;15.20;99.90;;;;;;4941346;28;20062;-93
2023/09/28 19:45:51;;;;;;;20.05;6.38;;;14.90;99.90;;;;;;4937895;29;20055;-96
2023/09/28 19:51:24;;;;;;;17.80;6.90;;;15.10;99.90;;;;;;5201502;23;20593;-95
2023/09/28 20:21:01;;;;;;;20.88;7.13;;;14.70;99.90;;;;;;5042764;23;20210;-93
2023/09/28 20:35:05;;;;;;;20.88;7.13;;;14.60;99.90;;;;;;4788946;29;20058;-96
2023/09/28 20:38:16;;;;;;;22.98;7.07;;;14.70;99.90;;;;;;4772901;30;20051;-95
2023/09/28 20:44:46;;;;;;;;;;;;;;;;;;;;;
2023/09/28 20:50:58;;;;;;;21.45;7.30;;;14.70;99.90;;;;;;4916785;28;20087;-96
2023/09/28 20:53:42;;;;;;;19.75;7.43;;;14.70;99.90;;;;;;4956291;28;20051;-96
2023/09/28 21:00:14;;;;;;;33.75;7.43;;;14.60;99.90;;;;;;4950706;29;20101;-96
2023/09/28 21:03:32;;;;;;;20.63;7.28;;;14.70;99.90;;;;;;4914736;29;20051;-94
2023/09/28 21:09:46;;;;;;;18.92;7.55;;;14.60;99.90;;;;;;4956665;29;20101;-93
2023/09/28 21:12:28;;;;;;;18.35;7.47;;;14.60;99.90;;;;;;4939881;29;20051;-95
2023/09/28 21:15:09;;;;;;;21.25;7.40;;;14.60;99.90;;;;;;4932852;29;20077;-96
2023/09/28 21:17:41;;;;;;;16.20;7.05;;;14.60;99.90;;;;;;4940310;29;20042;-95
2023/09/28 21:23:17;;;;;;;18.10;7.22;;;14.60;99.90;;;;;;4935579;29;20055;-92
2023/09/28 21:29:09;;;;;;;17.65;7.38;;;14.50;99.90;;;;;;4921851;29;20066;-96
2023/09/28 21:31:53;;;;;;;19.80;6.97;;;14.60;99.90;;;;;;4912605;29;20187;-93
2023/09/28 21:35:10;;;;;;;19.80;7.47;;;14.60;99.90;;;;;;4949856;29;20047;-96
2023/09/28 21:42:40;;;;;;;21.98;6.90;;;14.60;99.90;;;;;;4937410;29;20086;-95
2023/09/28 21:48:52;;;;;;;20.88;7.10;;;14.40;99.90;;;;;;4928449;29;20079;-96
